Time;durP1;ratioP1;P1;durP2;ratioP2;P2;SDS_P1;SDS_P2;PMS_P1;PMS_P2;Temp;Humidity;BMP_temperature;BMP_pressure;BME280_temperature;BME280_humidity;BME280_pressure;Samples;Min_cycle;Max_cycle;Signal;HPM_P1;HPM_P2
2022/02/25 00:02:26;;;;;;;65.57;35.68;;;;;;;2.80;100.00;142957.00;1772364;81;21088;-57
2022/02/25 00:04:54;;;;;;;55.48;30.95;;;;;;;2.79;100.00;142953.23;1774570;80;21005;-57
2022/02/25 00:07:22;;;;;;;60.50;34.00;;;;;;;2.78;100.00;142952.00;1774851;80;21127;-58
2022/02/25 00:09:50;;;;;;;62.93;34.13;;;;;;;2.81;100.00;142958.23;1774242;81;21017;-60
2022/02/25 00:12:18;;;;;;;58.85;33.78;;;;;;;2.82;100.00;142961.98;1744524;80;21038;-58
2022/02/25 00:14:45;;;;;;;57.50;33.38;;;;;;;2.86;100.00;142970.69;1746454;82;21002;-59
2022/02/25 00:17:13;;;;;;;56.70;32.95;;;;;;;2.92;100.00;142985.62;1746746;81;21074;-58
2022/02/25 00:19:41;;;;;;;54.83;33.80;;;;;;;2.85;100.00;142966.94;1746821;82;21022;-57
2022/02/25 00:22:09;;;;;;;54.48;32.55;;;;;;;2.79;100.00;142954.47;1743906;81;21045;-57
2022/02/25 00:24:37;;;;;;;53.02;32.40;;;;;;;2.77;100.00;142948.25;1746818;82;21214;-60
2022/02/25 00:27:06;;;;;;;59.93;33.33;;;;;;;2.75;100.00;142944.53;1747100;81;21035;-57
2022/02/25 00:29:34;;;;;;;54.20;30.30;;;;;;;2.76;100.00;142945.78;1746914;82;21014;-60
2022/02/25 00:32:03;;;;;;;53.40;30.68;;;;;;;2.78;100.00;142950.77;1743829;81;21066;-59
2022/02/25 00:34:31;;;;;;;43.83;27.85;;;;;;;2.83;100.00;142963.22;1747002;82;21026;-60
2022/02/25 00:36:59;;;;;;;53.87;32.13;;;;;;;2.85;100.00;142968.22;1747159;81;21041;-57
2022/02/25 00:39:28;;;;;;;54.23;30.50;;;;;;;2.90;100.00;142979.41;1746242;81;21030;-60
2022/02/25 00:41:56;;;;;;;53.28;30.75;;;;;;;2.94;100.00;142990.63;1743860;81;21050;-59
2022/02/25 00:44:24;;;;;;;53.52;31.20;;;;;;;2.97;100.00;142996.84;1746933;82;21065;-57
2022/02/25 00:46:52;;;;;;;52.62;30.97;;;;;;;3.01;100.00;143006.84;1747054;82;21057;-58
2022/02/25 00:49:20;;;;;;;50.10;30.75;;;;;;;3.07;100.00;143021.78;1746842;82;21006;-58
2022/02/25 00:51:50;;;;;;;51.00;31.27;;;;;;;3.14;100.00;143039.23;1745819;82;21050;-58
2022/02/25 00:54:17;;;;;;;50.75;29.10;;;;;;;3.11;100.00;143030.53;1745610;82;21018;-57
2022/02/25 00:56:45;;;;;;;50.83;30.60;;;;;;;3.11;100.00;143031.77;1746888;82;21024;-58
2022/02/25 00:59:13;;;;;;;49.67;28.85;;;;;;;3.12;100.00;143033.00;1746851;81;21508;-58
2022/02/25 01:01:41;;;;;;;51.80;30.72;;;;;;;3.11;100.00;143030.53;1746895;82;21050;-56
2022/02/25 01:04:08;;;;;;;51.68;29.65;;;;;;;3.13;100.00;143035.47;1743947;82;21002;-57
2022/02/25 01:06:34;;;;;;;55.25;29.27;;;;;;;3.13;100.00;143036.75;1747295;82;21029;-58
2022/02/25 01:09:01;;;;;;;50.05;28.77;;;;;;;3.15;100.00;143041.70;1745215;82;21049;-58
2022/02/25 01:11:28;;;;;;;48.55;29.75;;;;;;;3.13;100.00;143036.75;1763757;80;21019;-60
2022/02/25 01:13:55;;;;;;;43.95;27.02;;;;;;;3.20;100.00;143054.17;1781092;80;21505;-57
2022/02/25 01:16:22;;;;;;;46.40;26.95;;;;;;;3.24;100.00;143064.16;1782888;80;21498;-59
2022/02/25 01:18:48;;;;;;;47.15;29.12;;;;;;;3.25;100.00;143066.64;1752169;82;21489;-60
2022/02/25 01:21:14;;;;;;;47.67;29.00;;;;;;;3.26;100.00;143067.92;1752208;82;21071;-60
2022/02/25 01:23:41;;;;;;;49.33;31.02;;;;;;;3.25;100.00;143066.64;1752279;80;21040;-60
2022/02/25 01:26:09;;;;;;;51.50;30.92;;;;;;;3.16;100.00;143044.22;1750979;82;21518;-60
2022/02/25 01:28:35;;;;;;;47.50;27.93;;;;;;;3.08;100.00;143023.02;1750695;82;21593;-60
2022/02/25 01:31:03;;;;;;;48.00;28.60;;;;;;;3.00;100.00;143004.31;1750955;82;21039;-59
2022/02/25 01:33:30;;;;;;;48.33;28.38;;;;;;;2.97;100.00;142998.09;1758693;80;21545;-60
2022/02/25 01:35:58;;;;;;;51.20;29.02;;;;;;;2.98;100.00;142999.38;1783325;80;21067;-59
2022/02/25 01:38:24;;;;;;;53.33;29.87;;;;;;;2.95;100.00;142991.86;1783407;80;20992;-57
2022/02/25 01:40:53;;;;;;;46.42;28.07;;;;;;;2.99;100.00;143001.84;1782882;80;21028;-59
2022/02/25 01:43:19;;;;;;;53.45;28.55;;;;;;;2.99;100.00;143001.84;1781874;80;21043;-58
2022/02/25 01:45:46;;;;;;;44.55;27.15;;;;;;;2.98;100.00;142999.38;1750835;82;21009;-57
2022/02/25 01:48:13;;;;;;;47.65;27.98;;;;;;;2.96;100.00;142994.38;1750877;82;21518;-59
2022/02/25 01:50:39;;;;;;;47.67;28.92;;;;;;;3.01;100.00;143008.08;1751698;80;21031;-59
2022/02/25 01:53:09;;;;;;;45.88;28.30;;;;;;;3.15;100.00;143040.47;1751005;82;21087;-57
2022/02/25 01:55:38;;;;;;;46.65;29.35;;;;;;;3.22;100.00;143059.17;1777951;80;21058;-57
2022/02/25 01:58:08;;;;;;;46.48;26.85;;;;;;;3.29;100.00;143074.16;1783368;80;21044;-59
2022/02/25 02:00:37;;;;;;;46.45;28.23;;;;;;;3.30;99.73;143077.86;1783181;80;20996;-57
2022/02/25 02:03:06;;;;;;;49.13;28.10;;;;;;;3.21;99.66;143056.69;1781602;80;21024;-58
2022/02/25 02:05:34;;;;;;;45.83;26.87;;;;;;;3.17;99.52;143046.70;1752541;82;20980;-58
2022/02/25 02:08:00;;;;;;;61.28;30.80;;;;;;;3.07;99.79;143021.78;1752319;82;21566;-58
2022/02/25 02:10:27;;;;;;;46.28;27.45;;;;;;;2.98;100.00;142999.38;1685977;85;21016;-58
2022/02/25 02:12:54;;;;;;;47.95;28.87;;;;;;;2.93;100.00;142986.91;1702749;84;21038;-57
2022/02/25 02:15:20;;;;;;;49.73;28.95;;;;;;;2.91;100.00;142981.92;1702869;84;21045;-59
2022/02/25 02:17:47;;;;;;;50.08;29.63;;;;;;;2.91;100.00;142981.92;1774747;81;21056;-58
2022/02/25 02:20:14;;;;;;;47.45;28.77;;;;;;;2.90;100.00;142979.41;1775069;80;21518;-57
2022/02/25 02:22:40;;;;;;;55.33;31.35;;;;;;;2.89;100.00;142976.92;1774646;80;21110;-55
2022/02/25 02:25:08;;;;;;;50.23;30.52;;;;;;;2.92;100.00;142984.39;1756929;80;21037;-57
2022/02/25 02:30:20;;;;;;;53.65;29.00;;;;;;;2.79;100.00;142953.23;1744200;82;21535;-58
2022/02/25 02:32:48;;;;;;;48.68;29.23;;;;;;;2.79;100.00;142954.47;1744235;82;21527;-56
2022/02/25 02:35:14;;;;;;;47.70;28.73;;;;;;;2.78;100.00;142952.00;1729924;81;21455;-55
2022/02/25 02:37:41;;;;;;;52.55;32.60;;;;;;;2.75;100.00;142943.30;1725047;82;21091;-57
2022/02/25 02:40:09;;;;;;;52.80;31.05;;;;;;;2.75;100.00;142943.30;1725003;83;21531;-55
2022/02/25 02:42:36;;;;;;;47.55;29.45;;;;;;;2.69;100.00;142929.56;1726109;83;20985;-57
2022/02/25 02:45:06;;;;;;;47.38;29.57;;;;;;;2.69;100.00;142928.31;1726035;82;21029;-58
2022/02/25 02:47:33;;;;;;;47.78;28.90;;;;;;;2.71;100.00;142933.31;1726369;82;21016;-56
2022/02/25 02:50:00;;;;;;;60.35;32.30;;;;;;;2.72;100.00;142937.06;1726107;82;21040;-57
2022/02/25 02:52:26;;;;;;;53.70;31.15;;;;;;;2.68;100.00;142925.84;1725914;82;21040;-55
2022/02/25 02:54:53;;;;;;;52.70;32.83;;;;;;;2.65;100.00;142919.63;1726083;82;21063;-56
2022/02/25 02:57:22;;;;;;;57.03;32.88;;;;;;;2.59;100.00;142905.87;1725880;83;21038;-56
2022/02/25 02:59:49;;;;;;;52.55;32.85;;;;;;;2.57;100.00;142899.66;1726137;82;20999;-57
2022/02/25 03:02:16;;;;;;;56.00;33.98;;;;;;;2.59;100.00;142904.64;1726098;83;20996;-57
2022/02/25 03:04:43;;;;;;;55.75;32.63;;;;;;;2.61;100.00;142910.88;1726018;83;21036;-56
2022/02/25 03:07:10;;;;;;;54.10;31.93;;;;;;;2.65;100.00;142919.63;1725915;83;21095;-56
2022/02/25 03:09:38;;;;;;;55.17;32.55;;;;;;;2.66;100.00;142922.09;1726087;83;21036;-57
2022/02/25 03:12:08;;;;;;;55.03;31.70;;;;;;;2.60;100.00;142907.16;1739939;82;21009;-56
2022/02/25 03:14:36;;;;;;;54.33;32.25;;;;;;;2.52;100.00;142887.19;1716928;84;21573;-58
2022/02/25 03:17:06;;;;;;;50.38;30.55;;;;;;;2.54;100.00;142892.19;1685721;85;21021;-56
2022/02/25 03:19:35;;;;;;;53.52;31.60;;;;;;;2.65;100.00;142919.63;1693901;85;21048;-62
2022/02/25 03:22:01;;;;;;;52.80;32.48;;;;;;;2.67;100.00;142924.61;1694202;85;21088;-57
2022/02/25 03:24:28;;;;;;;49.23;30.17;;;;;;;2.67;100.00;142924.61;1693936;84;21028;-58
2022/02/25 03:26:56;;;;;;;56.15;29.00;;;;;;;2.70;100.00;142932.08;1694173;85;21044;-58
2022/02/25 03:29:23;;;;;;;50.05;29.90;;;;;;;2.75;100.00;142944.53;1694132;85;21036;-58
2022/02/25 03:31:50;;;;;;;47.98;29.12;;;;;;;2.81;100.00;142958.23;1694120;85;21583;-55
2022/02/25 03:34:17;;;;;;;48.58;29.23;;;;;;;2.94;100.00;142989.38;1693916;84;21095;-57
2022/02/25 03:36:44;;;;;;;55.05;31.50;;;;;;;2.98;100.00;143000.61;1694284;85;21095;-57
2022/02/25 03:39:11;;;;;;;49.03;29.12;;;;;;;2.93;100.00;142988.16;1693863;85;21068;-57
2022/02/25 03:41:37;;;;;;;45.05;27.45;;;;;;;2.87;100.00;142971.94;1694187;85;21052;-57
2022/02/25 03:44:05;;;;;;;47.85;29.90;;;;;;;2.94;100.00;142989.38;1693942;85;21052;-56
2022/02/25 03:46:31;;;;;;;47.15;29.65;;;;;;;3.00;100.00;143004.31;1694146;85;21040;-57
2022/02/25 03:48:58;;;;;;;48.90;28.10;;;;;;;3.00;100.00;143004.31;1694195;85;21079;-57
2022/02/25 03:51:26;;;;;;;49.63;29.98;;;;;;;3.02;100.00;143009.31;1694189;85;21064;-56
2022/02/25 03:53:52;;;;;;;53.65;29.12;;;;;;;2.97;100.00;142996.84;1694008;84;21055;-56
2022/02/25 03:56:19;;;;;;;48.48;29.02;;;;;;;2.92;100.00;142984.39;1694104;85;21044;-56
2022/02/25 03:58:45;;;;;;;45.12;27.58;;;;;;;2.81;100.00;142958.23;1693868;84;21051;-56
2022/02/25 04:01:12;;;;;;;50.92;29.67;;;;;;;2.87;100.00;142971.94;1694150;85;21043;-57
2022/02/25 04:03:38;;;;;;;41.95;27.98;;;;;;;2.82;100.00;142960.70;1694142;84;21085;-58
2022/02/25 04:06:05;;;;;;;49.67;28.50;;;;;;;2.85;100.00;142966.94;1694165;85;21017;-57
2022/02/25 04:08:33;;;;;;;46.53;29.00;;;;;;;2.79;100.00;142953.23;1693882;85;21585;-55
2022/02/25 04:11:00;;;;;;;45.45;28.27;;;;;;;2.71;100.00;142934.55;1694052;85;21048;-56
2022/02/25 04:13:26;;;;;;;47.73;28.57;;;;;;;2.64;100.00;142917.09;1686152;85;21535;-57
2022/02/25 04:15:53;;;;;;;46.60;29.87;;;;;;;2.58;100.00;142902.17;1723058;82;21111;-56
2022/02/25 04:18:19;;;;;;;50.17;29.10;;;;;;;2.56;100.00;142898.41;1723160;83;21094;-56
2022/02/25 04:20:46;;;;;;;45.03;28.15;;;;;;;2.52;100.00;142888.47;1723123;83;21067;-57
2022/02/25 04:23:12;;;;;;;52.33;29.27;;;;;;;2.48;100.00;142878.48;1723070;82;21499;-56
2022/02/25 04:25:39;;;;;;;46.45;27.75;;;;;;;2.49;100.00;142879.72;1723208;83;21049;-58
2022/02/25 04:28:05;;;;;;;45.35;27.98;;;;;;;2.52;100.00;142887.19;1723166;83;21025;-57
2022/02/25 04:30:32;;;;;;;48.75;29.65;;;;;;;2.53;100.00;142889.72;1723288;83;21036;-58
2022/02/25 04:32:59;;;;;;;48.65;28.87;;;;;;;2.57;100.00;142899.66;1722996;83;21067;-57
2022/02/25 04:35:25;;;;;;;48.63;28.75;;;;;;;2.58;100.00;142902.17;1723303;83;21111;-56
2022/02/25 04:37:53;;;;;;;47.60;28.90;;;;;;;2.57;100.00;142900.94;1722924;83;21052;-56
2022/02/25 04:40:20;;;;;;;48.73;29.92;;;;;;;2.57;100.00;142899.66;1722920;83;21067;-56
2022/02/25 04:42:47;;;;;;;45.48;28.45;;;;;;;2.50;100.00;142883.48;1722947;82;21024;-55
2022/02/25 04:45:15;;;;;;;51.65;29.37;;;;;;;2.41;100.00;142859.81;1722982;82;21053;-58
2022/02/25 04:47:43;;;;;;;48.78;29.00;;;;;;;2.36;100.00;142849.81;1723170;83;21063;-58
2022/02/25 04:50:11;;;;;;;48.08;27.60;;;;;;;2.37;100.00;142852.34;1722903;83;21048;-55
2022/02/25 04:52:40;;;;;;;49.48;31.77;;;;;;;2.41;100.00;142861.05;1723148;82;21060;-58
2022/02/25 04:55:08;;;;;;;56.83;32.40;;;;;;;2.41;100.00;142859.81;1723194;83;21064;-58
2022/02/25 04:57:34;;;;;;;52.75;31.87;;;;;;;2.42;100.00;142863.56;1723182;83;21490;-58
2022/02/25 05:00:01;;;;;;;69.03;35.28;;;;;;;2.42;100.00;142862.28;1722976;82;21033;-57
2022/02/25 05:02:28;;;;;;;56.30;31.75;;;;;;;2.44;100.00;142867.27;1722953;83;21107;-55
2022/02/25 05:04:55;;;;;;;54.40;32.28;;;;;;;2.45;100.00;142869.78;1723056;82;21024;-58
2022/02/25 05:07:22;;;;;;;56.73;32.35;;;;;;;2.38;100.00;142854.81;1722918;83;21028;-57
2022/02/25 05:09:48;;;;;;;48.38;30.15;;;;;;;2.31;100.00;142837.36;1723041;83;21558;-56
2022/02/25 05:12:17;;;;;;;52.10;29.67;;;;;;;2.31;100.00;142837.36;1733210;82;21506;-57
2022/02/25 05:20:15;;;;;;;48.38;29.67;;;;;;;2.50;100.00;142882.25;1694039;85;21001;-57
2022/02/25 05:22:43;;;;;;;43.42;26.27;;;;;;;2.52;100.00;142887.19;1693835;84;21048;-56
2022/02/25 05:25:10;;;;;;;43.25;26.82;;;;;;;2.56;100.00;142897.17;1694135;85;21075;-58
2022/02/25 05:27:37;;;;;;;45.78;27.10;;;;;;;2.51;100.00;142884.72;1693837;84;21490;-57
2022/02/25 05:30:05;;;;;;;44.00;28.17;;;;;;;2.53;100.00;142890.94;1693899;85;21039;-57
2022/02/25 05:32:32;;;;;;;45.15;26.62;;;;;;;2.61;100.00;142909.63;1694134;85;21103;-56
2022/02/25 05:34:58;;;;;;;46.15;28.47;;;;;;;2.63;100.00;142914.63;1693961;85;21075;-56
2022/02/25 05:37:25;;;;;;;50.15;28.20;;;;;;;2.64;100.00;142917.09;1694052;85;21020;-56
2022/02/25 05:39:51;;;;;;;48.05;29.63;;;;;;;2.62;100.00;142912.16;1694009;85;21550;-57
2022/02/25 05:42:18;;;;;;;44.75;27.48;;;;;;;2.57;100.00;142900.94;1693813;85;21072;-57
2022/02/25 05:44:45;;;;;;;48.13;28.25;;;;;;;2.56;100.00;142897.17;1694137;85;21056;-57
2022/02/25 05:47:12;;;;;;;47.25;28.38;;;;;;;2.57;100.00;142899.66;1694119;85;21028;-58
2022/02/25 05:49:38;;;;;;;48.28;29.75;;;;;;;2.65;100.00;142919.63;1694096;85;21077;-58
2022/02/25 05:52:05;;;;;;;53.02;30.15;;;;;;;2.68;100.00;142925.84;1693861;85;21091;-58
2022/02/25 05:54:33;;;;;;;46.00;29.87;;;;;;;2.67;100.00;142923.33;1693986;85;21045;-57
2022/02/25 05:57:00;;;;;;;49.42;28.07;;;;;;;2.67;100.00;142923.33;1693814;85;21068;-57
2022/02/25 05:59:26;;;;;;;47.98;29.40;;;;;;;2.65;100.00;142919.63;1694225;85;21013;-55
2022/02/25 06:01:53;;;;;;;46.53;29.92;;;;;;;2.60;100.00;142907.16;1693767;85;21545;-57
2022/02/25 06:04:21;;;;;;;50.58;29.37;;;;;;;2.59;100.00;142904.64;1693988;85;21514;-55
2022/02/25 06:06:47;;;;;;;48.40;29.45;;;;;;;2.60;100.00;142907.16;1693848;85;21051;-57
2022/02/25 06:09:14;;;;;;;45.78;29.15;;;;;;;2.67;100.00;142924.61;1694061;85;21034;-55
2022/02/25 06:11:41;;;;;;;46.98;28.40;;;;;;;2.71;100.00;142934.55;1693869;85;21017;-56
2022/02/25 06:14:07;;;;;;;44.77;27.20;;;;;;;2.76;100.00;142947.00;1691297;85;21139;-56
2022/02/25 06:16:34;;;;;;;46.02;26.97;;;;;;;2.78;100.00;142950.77;1725681;82;21032;-58
2022/02/25 06:19:01;;;;;;;48.42;29.95;;;;;;;2.79;100.00;142954.47;1725736;82;21028;-57
2022/02/25 06:21:27;;;;;;;46.25;29.18;;;;;;;2.83;100.00;142964.47;1725719;82;21083;-58
2022/02/25 06:23:54;;;;;;;46.42;27.58;;;;;;;2.93;100.00;142988.16;1725870;83;21514;-57
2022/02/25 06:26:21;;;;;;;48.13;27.80;;;;;;;3.08;100.00;143023.02;1725981;82;21467;-56
2022/02/25 06:28:48;;;;;;;44.27;27.70;;;;;;;3.13;99.61;143035.47;1726131;83;21006;-57
2022/02/25 06:31:15;;;;;;;47.98;27.30;;;;;;;3.13;99.41;143036.75;1726001;82;21036;-56
2022/02/25 06:33:41;;;;;;;45.05;27.87;;;;;;;3.16;98.97;143044.22;1725841;83;21471;-57
2022/02/25 06:36:08;;;;;;;50.52;29.85;;;;;;;3.11;98.71;143030.53;1725784;83;21029;-58
2022/02/25 06:38:35;;;;;;;48.10;28.65;;;;;;;3.07;98.50;143021.78;1726073;82;21033;-57
2022/02/25 06:41:01;;;;;;;51.28;28.40;;;;;;;3.06;98.70;143018.06;1726128;83;21004;-56
2022/02/25 06:43:28;;;;;;;48.60;28.30;;;;;;;3.07;98.80;143021.78;1726410;82;21522;-57
2022/02/25 06:45:54;;;;;;;49.93;29.10;;;;;;;3.14;98.41;143039.23;1726139;82;21057;-57
2022/02/25 06:48:21;;;;;;;42.83;26.85;;;;;;;3.18;98.26;143049.22;1726133;82;21200;-55
2022/02/25 06:50:48;;;;;;;41.83;25.95;;;;;;;3.29;98.05;143074.16;1725922;83;21005;-57
2022/02/25 06:53:15;;;;;;;43.83;25.08;;;;;;;3.39;97.72;143099.09;1726075;83;21017;-56
2022/02/25 06:55:42;;;;;;;44.63;27.42;;;;;;;3.50;96.85;143125.25;1726039;83;22075;-58
2022/02/25 06:58:08;;;;;;;47.90;28.60;;;;;;;3.55;96.08;143138.97;1725854;82;21076;-55
2022/02/25 07:00:37;;;;;;;43.60;27.48;;;;;;;3.70;96.25;143176.38;1725890;82;21083;-56
2022/02/25 07:03:06;;;;;;;39.67;24.55;;;;;;;3.75;94.61;143187.59;1726284;82;21020;-57
2022/02/25 07:05:33;;;;;;;42.58;25.23;;;;;;;3.82;94.99;143205.08;1725963;82;21072;-55
2022/02/25 07:07:59;;;;;;;39.33;26.12;;;;;;;4.02;94.37;143252.44;1726164;83;21043;-56
2022/02/25 07:10:26;;;;;;;40.92;25.15;;;;;;;4.29;93.66;143318.56;1725939;82;21534;-56
2022/02/25 07:12:53;;;;;;;37.53;24.52;;;;;;;4.55;92.62;143383.48;1735328;82;21510;-57
2022/02/25 07:15:20;;;;;;;43.58;24.92;;;;;;;4.78;91.75;143438.36;1752462;82;21582;-55
2022/02/25 07:17:47;;;;;;;41.75;24.92;;;;;;;4.92;90.11;143473.33;1752617;82;21545;-55
2022/02/25 07:20:13;;;;;;;41.95;24.80;;;;;;;5.06;89.03;143507.02;1752541;82;21016;-57
2022/02/25 07:22:41;;;;;;;38.73;23.95;;;;;;;5.22;88.03;143547.00;1716754;83;21041;-55
2022/02/25 07:25:08;;;;;;;39.50;23.32;;;;;;;5.26;85.25;143555.72;1685971;85;21036;-57
2022/02/25 07:27:35;;;;;;;37.58;23.55;;;;;;;5.22;84.10;143545.77;1693928;85;21079;-57
2022/02/25 07:30:03;;;;;;;32.35;22.73;;;;;;;5.23;83.06;143548.23;1694127;85;21044;-55
2022/02/25 07:32:30;;;;;;;38.42;22.98;;;;;;;5.29;82.77;143561.97;1694128;85;21075;-56
2022/02/25 07:34:57;;;;;;;31.75;20.90;;;;;;;5.44;82.95;143600.72;1694138;85;21080;-57
2022/02/25 07:37:24;;;;;;;35.20;20.72;;;;;;;5.52;81.06;143619.44;1693941;84;21072;-56
2022/02/25 07:39:51;;;;;;;31.33;20.23;;;;;;;5.61;80.78;143640.66;1693848;85;21546;-57
2022/02/25 07:42:17;;;;;;;31.52;19.37;;;;;;;5.77;80.24;143679.38;1694120;85;21522;-57
2022/02/25 07:44:44;;;;;;;27.52;18.17;;;;;;;5.97;79.32;143728.16;1694142;85;21075;-56
2022/02/25 07:47:10;;;;;;;32.35;19.87;;;;;;;6.08;77.92;143755.62;1694284;85;21008;-57
2022/02/25 07:49:37;;;;;;;31.57;20.12;;;;;;;6.12;76.76;143764.41;1693878;84;21100;-57
2022/02/25 07:52:04;;;;;;;30.88;20.70;;;;;;;6.01;76.46;143738.17;1694155;85;21080;-56
2022/02/25 07:54:31;;;;;;;33.45;20.23;;;;;;;5.99;76.33;143733.16;1693878;85;21119;-55
2022/02/25 07:56:59;;;;;;;31.02;20.17;;;;;;;6.09;76.27;143758.16;1694085;85;21037;-56
2022/02/25 07:59:26;;;;;;;33.33;20.60;;;;;;;6.19;75.73;143783.14;1693887;85;21024;-57
2022/02/25 08:01:54;;;;;;;33.83;21.48;;;;;;;6.24;75.07;143795.64;1693891;85;21096;-58
2022/02/25 08:04:20;;;;;;;38.38;22.10;;;;;;;6.24;75.34;143794.41;1694136;85;21036;-58
2022/02/25 08:06:47;;;;;;;35.90;22.45;;;;;;;6.37;75.29;143825.64;1693922;85;21036;-55
2022/02/25 08:09:14;;;;;;;29.42;20.00;;;;;;;6.45;75.02;143846.88;1693952;85;21044;-57
2022/02/25 08:11:41;;;;;;;29.30;19.65;;;;;;;6.48;73.19;143853.13;1693814;85;21043;-56
2022/02/25 08:14:08;;;;;;;31.35;19.57;;;;;;;6.51;74.03;143860.61;1688324;84;21045;-56
2022/02/25 08:16:35;;;;;;;27.87;18.80;;;;;;;6.64;73.02;143891.86;1722885;82;21040;-57
2022/02/25 08:19:03;;;;;;;28.32;19.67;;;;;;;6.42;71.81;143838.14;1723067;82;21149;-58
2022/02/25 08:21:30;;;;;;;30.72;19.65;;;;;;;6.37;72.00;143826.89;1723249;82;21470;-56
2022/02/25 08:23:57;;;;;;;26.35;18.37;;;;;;;6.48;72.31;143854.36;1722734;82;21172;-57
2022/02/25 08:26:24;;;;;;;32.65;18.57;;;;;;;6.61;71.84;143885.61;1719350;82;21168;-57
2022/02/25 08:28:52;;;;;;;28.67;18.20;;;;;;;6.82;71.21;143936.91;1714377;83;21092;-56
2022/02/25 08:31:19;;;;;;;27.95;16.90;;;;;;;7.00;70.57;143979.44;1714578;83;21515;-55
2022/02/25 08:33:46;;;;;;;24.15;15.43;;;;;;;7.01;69.53;143983.16;1714922;84;21583;-57
2022/02/25 08:36:12;;;;;;;22.70;16.10;;;;;;;7.10;68.19;144005.69;1715121;84;21073;-57
2022/02/25 08:38:39;;;;;;;29.95;17.77;;;;;;;7.12;68.07;144009.41;1716092;84;21002;-56
2022/02/25 08:41:05;;;;;;;24.07;16.80;;;;;;;7.20;68.21;144028.17;1715898;84;21530;-55
2022/02/25 08:43:33;;;;;;;27.35;16.87;;;;;;;7.22;67.95;144033.19;1715816;84;21046;-55
2022/02/25 08:46:05;;;;;;;16.10;10.63;;;;;;;7.25;67.36;144040.69;1715982;84;21014;-53
2022/02/25 08:48:29;;;;;;;11.57;8.08;;;;;;;7.25;64.95;144041.97;1714621;84;21030;-53
2022/02/25 08:50:56;;;;;;;13.00;8.85;;;;;;;7.17;63.38;144021.91;1715959;83;21078;-55
2022/02/25 08:53:24;;;;;;;13.95;9.50;;;;;;;7.08;63.03;144000.67;1715752;83;21053;-54
2022/02/25 08:55:50;;;;;;;11.53;8.30;;;;;;;6.98;63.23;143974.42;1716019;83;21068;-53
2022/02/25 08:58:17;;;;;;;13.70;8.75;;;;;;;6.93;63.07;143963.16;1715718;84;21018;-53
2022/02/25 09:00:44;;;;;;;14.50;9.43;;;;;;;6.87;62.66;143948.12;1716004;83;21053;-53
2022/02/25 09:03:11;;;;;;;14.33;9.50;;;;;;;6.81;62.64;143933.14;1715777;84;21097;-53
2022/02/25 09:05:37;;;;;;;18.85;9.60;;;;;;;6.66;62.11;143898.13;1715557;84;21053;-54
2022/02/25 09:08:05;;;;;;;15.88;10.10;;;;;;;6.47;62.33;143851.87;1715696;83;21018;-54
2022/02/25 09:10:32;;;;;;;13.75;9.05;;;;;;;6.34;62.82;143819.39;1715993;83;21097;-54
2022/02/25 09:12:58;;;;;;;14.20;9.58;;;;;;;6.11;62.55;143761.88;1719022;82;21512;-54
2022/02/25 09:15:27;;;;;;;16.45;10.35;;;;;;;5.90;63.39;143710.59;1743165;82;21095;-53
2022/02/25 09:17:58;;;;;;;15.72;10.32;;;;;;;5.80;64.14;143686.86;1742450;82;21111;-54
2022/02/25 09:20:27;;;;;;;15.75;9.08;;;;;;;5.71;64.40;143665.64;1744027;82;21032;-55
2022/02/25 09:22:54;;;;;;;14.58;8.80;;;;;;;5.68;64.80;143658.16;1744390;82;21017;-55
2022/02/25 09:25:21;;;;;;;15.15;8.63;;;;;;;5.73;64.63;143669.41;1743951;82;21040;-56
2022/02/25 09:27:47;;;;;;;13.15;8.95;;;;;;;5.84;64.54;143696.88;1744096;82;21005;-56
2022/02/25 09:30:17;;;;;;;13.95;9.15;;;;;;;5.85;64.30;143700.64;1744101;82;21474;-54
2022/02/25 09:32:45;;;;;;;16.25;8.93;;;;;;;5.93;64.29;143718.09;1744252;82;21020;-55
2022/02/25 09:35:12;;;;;;;16.48;9.68;;;;;;;6.11;64.07;143763.16;1744286;82;21140;-56
2022/02/25 09:37:39;;;;;;;15.15;10.25;;;;;;;6.25;63.47;143798.13;1744278;82;21016;-54
2022/02/25 09:40:13;;;;;;;12.43;9.05;;;;;;;6.21;63.22;143786.91;1744002;82;21044;-55
2022/02/25 09:42:41;;;;;;;11.75;7.42;;;;;;;6.27;63.39;143803.13;1744285;82;21511;-56
2022/02/25 09:45:11;;;;;;;12.03;8.28;;;;;;;6.42;61.81;143839.38;1744222;82;21017;-55
2022/02/25 09:47:39;;;;;;;14.13;8.78;;;;;;;6.28;61.71;143804.37;1744319;82;21498;-54
2022/02/25 09:50:10;;;;;;;13.55;8.88;;;;;;;6.29;62.65;143808.14;1744093;82;20997;-54
2022/02/25 09:52:40;;;;;;;12.95;8.80;;;;;;;6.51;61.80;143861.91;1744297;82;21012;-56
2022/02/25 09:55:34;;;;;;;13.08;8.53;;;;;;;6.53;60.82;143865.63;1744071;82;21029;-54
2022/02/25 09:58:03;;;;;;;17.17;9.43;;;;;;;6.25;60.69;143798.13;1743258;82;21040;-54
2022/02/25 10:00:32;;;;;;;15.53;9.08;;;;;;;6.17;61.59;143776.89;1744577;82;21196;-56
2022/02/25 10:03:03;;;;;;;16.87;10.05;;;;;;;6.24;61.95;143795.64;1744541;82;21475;-54
2022/02/25 10:05:32;;;;;;;13.13;9.23;;;;;;;6.41;61.97;143835.63;1744401;82;21012;-55
2022/02/25 10:08:21;;;;;;;14.03;8.98;;;;;;;6.60;61.71;143881.89;1744508;82;21003;-56
2022/02/25 10:10:55;;;;;;;13.05;8.33;;;;;;;6.78;60.99;143926.89;1743561;82;21577;-56
2022/02/25 10:13:25;;;;;;;12.60;8.40;;;;;;;7.01;60.35;143981.91;1743346;82;21048;-55
2022/02/25 10:15:58;;;;;;;15.38;9.30;;;;;;;7.15;58.84;144016.95;1744431;82;21518;-56
2022/02/25 10:18:31;;;;;;;14.65;9.28;;;;;;;7.16;57.78;144020.67;1744516;82;21497;-55
2022/02/25 10:21:16;;;;;;;14.38;9.05;;;;;;;7.03;58.07;143986.94;1744455;82;21004;-55
2022/02/25 10:23:46;;;;;;;17.05;9.25;;;;;;;7.14;58.46;144014.42;1744437;82;20999;-54
2022/02/25 10:26:18;;;;;;;12.28;7.92;;;;;;;7.28;58.68;144048.22;1744409;82;21063;-56
2022/02/25 10:28:50;;;;;;;16.52;7.58;;;;;;;7.52;57.81;144108.23;1744153;82;21005;-56
2022/02/25 10:31:32;;;;;;;14.80;9.05;;;;;;;7.73;56.80;144159.53;1744424;82;20977;-55
2022/02/25 10:34:12;;;;;;;13.85;9.03;;;;;;;7.68;56.12;144145.77;1744204;82;21024;-56
2022/02/25 10:36:47;;;;;;;13.45;9.20;;;;;;;7.60;56.34;144127.00;1743976;82;21013;-55
2022/02/25 10:39:29;;;;;;;15.48;9.25;;;;;;;7.17;56.51;144021.91;1744240;82;21479;-54
2022/02/25 10:42:18;;;;;;;;;;;;;;;6.84;57.75;143940.63;1746972;82;21080;-53
2022/02/25 10:44:58;;;;;;;14.87;9.00;;;;;;;6.88;58.22;143950.66;1744094;82;20111;-55
2022/02/25 10:47:29;;;;;;;16.95;8.75;;;;;;;7.10;58.16;144005.69;1744433;82;21002;-55
2022/02/25 10:50:08;;;;;;;14.15;8.95;;;;;;;7.16;56.30;144020.67;1744507;82;20977;-55
2022/02/25 10:52:39;;;;;;;17.17;9.45;;;;;;;6.82;57.79;143935.63;1744485;82;21000;-56
2022/02/25 10:55:14;;;;;;;13.38;9.23;;;;;;;6.48;58.90;143853.13;1744421;82;21013;-56
2022/02/25 10:57:40;;;;;;;13.25;8.88;;;;;;;6.22;59.07;143790.63;1744406;82;21129;-57
2022/02/25 11:00:11;;;;;;;15.10;9.43;;;;;;;6.51;59.38;143860.61;1744180;82;21020;-55
2022/02/25 11:02:41;;;;;;;16.05;10.58;;;;;;;6.23;59.01;143793.16;1744392;82;21039;-55
2022/02/25 11:05:13;;;;;;;14.28;9.35;;;;;;;5.70;60.61;143663.16;1744582;82;21023;-55
2022/02/25 11:07:43;;;;;;;15.18;9.53;;;;;;;5.48;61.52;143608.19;1744377;82;20968;-56
2022/02/25 11:10:14;;;;;;;15.72;9.88;;;;;;;5.55;61.78;143625.69;1743800;82;21017;-56
2022/02/25 11:12:44;;;;;;;15.10;9.70;;;;;;;5.59;62.02;143636.89;1744403;82;21095;-57
2022/02/25 11:15:15;;;;;;;14.18;9.63;;;;;;;5.72;61.57;143668.13;1744315;82;21095;-57
2022/02/25 11:17:45;;;;;;;16.07;10.03;;;;;;;5.87;61.44;143705.59;1744603;82;21574;-56
2022/02/25 11:24:12;;;;;;;15.88;9.00;;;;;;;6.46;60.28;143848.11;1744544;82;20985;-56
2022/02/25 11:26:41;;;;;;;16.67;9.25;;;;;;;6.82;58.27;143936.91;1744430;82;21008;-57
2022/02/25 11:29:11;;;;;;;16.25;10.28;;;;;;;6.97;58.48;143973.13;1744324;82;21024;-56
2022/02/25 11:31:40;;;;;;;15.35;9.75;;;;;;;7.28;57.35;144048.22;1744067;82;21071;-56